Megargel, TX

3:32 AM CST on March 06, 2015 (GMT -0600)
DDR Longhorns Graham, Texas | Change Station
CLOSE
Current Station
Personal Weather Station
Location: Graham, TX
Elevation: 1178 ft
Nearby Weather Stations

Elev 1178 ft 33.18 °N, 98.67 °W | Updated 5 seconds ago

Clear
Clear
27.7 °F
Feels Like 28 °F
N
0.9
Wind Variable Wind from SSW
Gusts 2.0 mph

Today
High -- | Low -- °F
--% Chance of Precip.
Yesterday
High -- | Low -- °F
Precip. -- in
6:57 AM 6:35 PM
Full, 100% visible
Pressure 30.52 in
Visibility 10.0 miles
Clouds Clear
Windchill 28 °F
Dew Point 17 °F
Humidity 65%
Rainfall in
Snow Depth Not available.
UV 0 out of 12
Pollen 3.40 out of 12
Air Quality Not available.
Flu Activity Not available.
METAR KRPH 060915Z AUTO 00000KT 10SM CLR M03/M05 A3052 RMK AO2 T10301055

More Conditions Fewer Conditions

Pressure 30.52 in
Visibility 10.0 miles
Clouds Clear
Windchill 28 °F
Dew Point 17 °F
Humidity 65%
Rainfall in
Snow Depth Not available.
UV 0 out of 12
Pollen 3.40 out of 12
Air Quality Not available.
Flu Activity Not available.
METAR KRPH 060915Z AUTO 00000KT 10SM CLR M03/M05 A3052 RMK AO2 T10301055

More Conditions Fewer Conditions

10-Day Weather Forecast

Almanac

Astronomy

Mar. 06, 2015 Rise Set
Actual Time
Civil Twilight
Nautical Twilight
Astronomical Twilight
Moon
Length of Visible Light
Length of Day
Tomorrow will be .
, % of the Moon is Illuminated

Today's Extremes

State Highs State Lows

Community

WunderPhotos

Upload Photos

1,803,214 photos uploaded!

WunderBlogs® & News

Nearby

Air Quality

  Air Quality AQ Index Pollutant
Not available.

Snow Depth

Station Depth Elevation

Earthquake Activity

City Distance Mag. Time & Date
Minimum magnitude displayed is 2.5.

Coastal Water Temperatures

Place Temperature

Nearby Weather Stations